<?xml version="1.0" encoding="UTF-8" standalone="no" ?>
<gpx xmlns="http://www.topografix.com/GPX/1/1" xmlns:xsi="http://www.w3.org/2001/XMLSchema-instance" xsi:schemaLocation="http://www.topografix.com/GPX/1/1 http://www.topografix.com/GPX/1/1/gpx.xsd" version="1.1" creator="VisuGPX - https://www.visugpx.com">
  <metadata>
    <name>suce_BoucleNordOuestBis_21km</name>
    <desc><![CDATA[gnerando idor: 5548821_9731105_9730670]]></desc>
  </metadata>
  <wpt lat="47.34259" lon="-1.53106">
    <ele>21.3</ele>
    <name><![CDATA[0001488]]></name>
    <type><![CDATA[Point de départ]]></type>
  </wpt>
  <wpt lat="47.34254" lon="-1.53112">
    <ele>21.1</ele>
    <name><![CDATA[0001489]]></name>
    <desc><![CDATA[<p><br /><h3>Nom: Segment: 1</h3><br />Heure de départ: 12/03/2023 14:02<br/>Heure d'arrivée: 12/03/2023 16:09<br/>Distance: 11,1km (02:07)<br/>Temps déplacement: 02:04<br/>Vitesse moyenne: 5,24 km/h<br/>Vitesse moyenne mouv.: 5,36 km/h<br/>Vitesse Max.: 8,1 km/h<br/>Altitude minimale: 3 m<br/>Altitude maximale: 38 m<br/>Vitesse de montée: 127 m/h<br/>Vitesse de descente: -156,2 m/h<br/>Gain d'altitude: 121 m<br/>Perte d'altitude: -121 m<br/>Temps de montée: 00:57<br/>Temps de descente: 00:46<br/></p>]]></desc>
    <type><![CDATA[Point d'arrivée]]></type>
  </wpt>
  <trk>
    <name><![CDATA[Suce_Mazerolles_12.5km-5548821]]></name>
    <extensions>
      <line xmlns="http://www.topografix.com/GPX/gpx_style/0/2">
        <color>800080</color>
        <width>4</width>
      </line>
    </extensions>
    <trkseg>
      <trkpt lat="47.36344" lon="-1.50794">
        <ele>6</ele>
        <time>2023-08-11T14:08:25Z</time>
      </trkpt>
      <trkpt lat="47.36348" lon="-1.50806">
        <ele>6</ele>
        <time>2023-08-11T14:08:37Z</time>
      </trkpt>
      <trkpt lat="47.36464" lon="-1.50725">
        <ele>8</ele>
        <time>2023-08-11T14:11:28Z</time>
      </trkpt>
      <trkpt lat="47.36525" lon="-1.50738">
        <ele>8</ele>
        <time>2023-08-11T14:12:51Z</time>
      </trkpt>
      <trkpt lat="47.36582" lon="-1.50834">
        <ele>5</ele>
        <time>2023-08-11T14:14:46Z</time>
      </trkpt>
      <trkpt lat="47.3676" lon="-1.50884">
        <ele>5</ele>
        <time>2023-08-11T14:18:48Z</time>
      </trkpt>
      <trkpt lat="47.37245" lon="-1.50737">
        <ele>5</ele>
        <time>2023-08-11T14:29:48Z</time>
      </trkpt>
      <trkpt lat="47.37306" lon="-1.50759">
        <ele>6</ele>
        <time>2023-08-11T14:31:12Z</time>
      </trkpt>
      <trkpt lat="47.373" lon="-1.5089">
        <ele>5</ele>
        <time>2023-08-11T14:33:11Z</time>
      </trkpt>
      <trkpt lat="47.37446" lon="-1.50902">
        <ele>6</ele>
        <time>2023-08-11T14:36:26Z</time>
      </trkpt>
      <trkpt lat="47.37499" lon="-1.50861">
        <ele>6</ele>
        <time>2023-08-11T14:37:46Z</time>
      </trkpt>
      <trkpt lat="47.37515" lon="-1.50817">
        <ele>6</ele>
        <time>2023-08-11T14:38:31Z</time>
      </trkpt>
      <trkpt lat="47.37526" lon="-1.50795">
        <ele>6</ele>
        <time>2023-08-11T14:38:56Z</time>
      </trkpt>
      <trkpt lat="47.37552" lon="-1.50751">
        <ele>6</ele>
        <time>2023-08-11T14:39:49Z</time>
      </trkpt>
      <trkpt lat="47.37574" lon="-1.50706">
        <ele>6</ele>
        <time>2023-08-11T14:40:39Z</time>
      </trkpt>
      <trkpt lat="47.37601" lon="-1.50665">
        <ele>7</ele>
        <time>2023-08-11T14:41:30Z</time>
      </trkpt>
      <trkpt lat="47.37616" lon="-1.50638">
        <ele>8</ele>
        <time>2023-08-11T14:42:02Z</time>
      </trkpt>
      <trkpt lat="47.37628" lon="-1.50619">
        <ele>8</ele>
        <time>2023-08-11T14:42:25Z</time>
      </trkpt>
      <trkpt lat="47.37654" lon="-1.50604">
        <ele>9</ele>
        <time>2023-08-11T14:43:03Z</time>
      </trkpt>
      <trkpt lat="47.37647" lon="-1.50636">
        <ele>9</ele>
        <time>2023-08-11T14:43:33Z</time>
      </trkpt>
      <trkpt lat="47.37644" lon="-1.50675">
        <ele>8</ele>
        <time>2023-08-11T14:44:09Z</time>
      </trkpt>
      <trkpt lat="47.37674" lon="-1.5067">
        <ele>9</ele>
        <time>2023-08-11T14:44:49Z</time>
      </trkpt>
      <trkpt lat="47.37692" lon="-1.50666">
        <ele>10</ele>
        <time>2023-08-11T14:45:13Z</time>
      </trkpt>
      <trkpt lat="47.37717" lon="-1.50666">
        <ele>10</ele>
        <time>2023-08-11T14:45:46Z</time>
      </trkpt>
      <trkpt lat="47.37736" lon="-1.50666">
        <ele>11</ele>
        <time>2023-08-11T14:46:12Z</time>
      </trkpt>
      <trkpt lat="47.37754" lon="-1.50661">
        <ele>11</ele>
        <time>2023-08-11T14:46:36Z</time>
      </trkpt>
      <trkpt lat="47.37773" lon="-1.50656">
        <ele>12</ele>
        <time>2023-08-11T14:47:02Z</time>
      </trkpt>
      <trkpt lat="47.37793" lon="-1.50654">
        <ele>13</ele>
        <time>2023-08-11T14:47:29Z</time>
      </trkpt>
      <trkpt lat="47.37811" lon="-1.50655">
        <ele>13</ele>
        <time>2023-08-11T14:47:53Z</time>
      </trkpt>
      <trkpt lat="47.3783" lon="-1.50649">
        <ele>14</ele>
        <time>2023-08-11T14:48:19Z</time>
      </trkpt>
      <trkpt lat="47.37874" lon="-1.50644">
        <ele>13</ele>
        <time>2023-08-11T14:49:18Z</time>
      </trkpt>
      <trkpt lat="47.37902" lon="-1.50649">
        <ele>13</ele>
        <time>2023-08-11T14:49:55Z</time>
      </trkpt>
      <trkpt lat="47.37924" lon="-1.50678">
        <ele>14</ele>
        <time>2023-08-11T14:50:35Z</time>
      </trkpt>
      <trkpt lat="47.37959" lon="-1.50648">
        <ele>10</ele>
        <time>2023-08-11T14:51:29Z</time>
      </trkpt>
      <trkpt lat="47.37973" lon="-1.50666">
        <ele>9</ele>
        <time>2023-08-11T14:51:53Z</time>
      </trkpt>
      <trkpt lat="47.38002" lon="-1.50704">
        <ele>8</ele>
        <time>2023-08-11T14:52:45Z</time>
      </trkpt>
      <trkpt lat="47.38024" lon="-1.50712">
        <ele>7</ele>
        <time>2023-08-11T14:53:15Z</time>
      </trkpt>
      <trkpt lat="47.38042" lon="-1.50716">
        <ele>7</ele>
        <time>2023-08-11T14:53:40Z</time>
      </trkpt>
      <trkpt lat="47.38061" lon="-1.50715">
        <ele>6</ele>
        <time>2023-08-11T14:54:05Z</time>
      </trkpt>
      <trkpt lat="47.38097" lon="-1.50738">
        <ele>5</ele>
        <time>2023-08-11T14:54:57Z</time>
      </trkpt>
      <trkpt lat="47.38127" lon="-1.50767">
        <ele>6</ele>
        <time>2023-08-11T14:55:45Z</time>
      </trkpt>
      <trkpt lat="47.3817" lon="-1.50775">
        <ele>6</ele>
        <time>2023-08-11T14:56:43Z</time>
      </trkpt>
      <trkpt lat="47.38187" lon="-1.50788">
        <ele>6</ele>
        <time>2023-08-11T14:57:09Z</time>
      </trkpt>
      <trkpt lat="47.38217" lon="-1.50824">
        <ele>6</ele>
        <time>2023-08-11T14:58:00Z</time>
      </trkpt>
      <trkpt lat="47.38245" lon="-1.50865">
        <ele>6</ele>
        <time>2023-08-11T14:58:53Z</time>
      </trkpt>
      <trkpt lat="47.38259" lon="-1.50921">
        <ele>6</ele>
        <time>2023-08-11T14:59:47Z</time>
      </trkpt>
      <trkpt lat="47.38273" lon="-1.50978">
        <ele>7</ele>
        <time>2023-08-11T15:00:41Z</time>
      </trkpt>
      <trkpt lat="47.38297" lon="-1.51011">
        <ele>8</ele>
        <time>2023-08-11T15:01:25Z</time>
      </trkpt>
      <trkpt lat="47.38313" lon="-1.5103">
        <ele>8</ele>
        <time>2023-08-11T15:01:53Z</time>
      </trkpt>
      <trkpt lat="47.38338" lon="-1.5104">
        <ele>8</ele>
        <time>2023-08-11T15:02:27Z</time>
      </trkpt>
      <trkpt lat="47.38374" lon="-1.5109">
        <ele>7</ele>
        <time>2023-08-11T15:03:33Z</time>
      </trkpt>
      <trkpt lat="47.38397" lon="-1.5114">
        <ele>6</ele>
        <time>2023-08-11T15:04:28Z</time>
      </trkpt>
      <trkpt lat="47.38416" lon="-1.51188">
        <ele>5</ele>
        <time>2023-08-11T15:05:18Z</time>
      </trkpt>
      <trkpt lat="47.38428" lon="-1.51215">
        <ele>5</ele>
        <time>2023-08-11T15:05:47Z</time>
      </trkpt>
      <trkpt lat="47.38456" lon="-1.51293">
        <ele>6</ele>
        <time>2023-08-11T15:07:07Z</time>
      </trkpt>
      <trkpt lat="47.38497" lon="-1.51335">
        <ele>7</ele>
        <time>2023-08-11T15:08:14Z</time>
      </trkpt>
      <trkpt lat="47.38514" lon="-1.51359">
        <ele>7</ele>
        <time>2023-08-11T15:08:45Z</time>
      </trkpt>
      <trkpt lat="47.38535" lon="-1.51413">
        <ele>7</ele>
        <time>2023-08-11T15:09:41Z</time>
      </trkpt>
      <trkpt lat="47.38548" lon="-1.5145">
        <ele>7</ele>
        <time>2023-08-11T15:10:19Z</time>
      </trkpt>
      <trkpt lat="47.38561" lon="-1.51485">
        <ele>7</ele>
        <time>2023-08-11T15:10:55Z</time>
      </trkpt>
      <trkpt lat="47.3857" lon="-1.5151">
        <ele>6</ele>
        <time>2023-08-11T15:11:21Z</time>
      </trkpt>
      <trkpt lat="47.38587" lon="-1.51557">
        <ele>7</ele>
        <time>2023-08-11T15:12:09Z</time>
      </trkpt>
      <trkpt lat="47.38595" lon="-1.5158">
        <ele>7</ele>
        <time>2023-08-11T15:12:32Z</time>
      </trkpt>
      <trkpt lat="47.38604" lon="-1.51608">
        <ele>7</ele>
        <time>2023-08-11T15:13:00Z</time>
      </trkpt>
      <trkpt lat="47.38614" lon="-1.51633">
        <ele>8</ele>
        <time>2023-08-11T15:13:26Z</time>
      </trkpt>
      <trkpt lat="47.3863" lon="-1.51675">
        <ele>8</ele>
        <time>2023-08-11T15:14:10Z</time>
      </trkpt>
      <trkpt lat="47.38644" lon="-1.51716">
        <ele>8</ele>
        <time>2023-08-11T15:14:51Z</time>
      </trkpt>
      <trkpt lat="47.38653" lon="-1.5172">
        <ele>8</ele>
        <time>2023-08-11T15:15:04Z</time>
      </trkpt>
      <trkpt lat="47.38657" lon="-1.51747">
        <ele>8</ele>
        <time>2023-08-11T15:15:29Z</time>
      </trkpt>
      <trkpt lat="47.38666" lon="-1.51774">
        <ele>8</ele>
        <time>2023-08-11T15:15:56Z</time>
      </trkpt>
      <trkpt lat="47.38677" lon="-1.51805">
        <ele>8</ele>
        <time>2023-08-11T15:16:28Z</time>
      </trkpt>
      <trkpt lat="47.38688" lon="-1.51831">
        <ele>8</ele>
        <time>2023-08-11T15:16:55Z</time>
      </trkpt>
      <trkpt lat="47.38711" lon="-1.51895">
        <ele>8</ele>
        <time>2023-08-11T15:18:01Z</time>
      </trkpt>
      <trkpt lat="47.38724" lon="-1.51929">
        <ele>8</ele>
        <time>2023-08-11T15:18:36Z</time>
      </trkpt>
      <trkpt lat="47.38743" lon="-1.51986">
        <ele>7</ele>
        <time>2023-08-11T15:19:33Z</time>
      </trkpt>
      <trkpt lat="47.38754" lon="-1.52023">
        <ele>7</ele>
        <time>2023-08-11T15:20:10Z</time>
      </trkpt>
      <trkpt lat="47.38762" lon="-1.52053">
        <ele>8</ele>
        <time>2023-08-11T15:20:39Z</time>
      </trkpt>
      <trkpt lat="47.38774" lon="-1.52116">
        <ele>8</ele>
        <time>2023-08-11T15:21:38Z</time>
      </trkpt>
      <trkpt lat="47.38778" lon="-1.52143">
        <ele>8</ele>
        <time>2023-08-11T15:22:03Z</time>
      </trkpt>
      <trkpt lat="47.38789" lon="-1.52206">
        <ele>8</ele>
        <time>2023-08-11T15:23:02Z</time>
      </trkpt>
      <trkpt lat="47.38794" lon="-1.52229">
        <ele>8</ele>
        <time>2023-08-11T15:23:24Z</time>
      </trkpt>
      <trkpt lat="47.38798" lon="-1.52256">
        <ele>8</ele>
        <time>2023-08-11T15:23:49Z</time>
      </trkpt>
      <trkpt lat="47.38802" lon="-1.52281">
        <ele>9</ele>
        <time>2023-08-11T15:24:12Z</time>
      </trkpt>
      <trkpt lat="47.38807" lon="-1.52306">
        <ele>9</ele>
        <time>2023-08-11T15:24:36Z</time>
      </trkpt>
      <trkpt lat="47.38811" lon="-1.52338">
        <ele>9</ele>
        <time>2023-08-11T15:25:05Z</time>
      </trkpt>
      <trkpt lat="47.38816" lon="-1.52365">
        <ele>10</ele>
        <time>2023-08-11T15:25:30Z</time>
      </trkpt>
      <trkpt lat="47.3882" lon="-1.52391">
        <ele>10</ele>
        <time>2023-08-11T15:25:54Z</time>
      </trkpt>
      <trkpt lat="47.38823" lon="-1.52416">
        <ele>10</ele>
        <time>2023-08-11T15:26:17Z</time>
      </trkpt>
      <trkpt lat="47.38829" lon="-1.52446">
        <ele>10</ele>
        <time>2023-08-11T15:26:46Z</time>
      </trkpt>
      <trkpt lat="47.38834" lon="-1.52473">
        <ele>11</ele>
        <time>2023-08-11T15:27:11Z</time>
      </trkpt>
      <trkpt lat="47.38844" lon="-1.52532">
        <ele>11</ele>
        <time>2023-08-11T15:28:06Z</time>
      </trkpt>
      <trkpt lat="47.38847" lon="-1.5256">
        <ele>10</ele>
        <time>2023-08-11T15:28:31Z</time>
      </trkpt>
      <trkpt lat="47.38847" lon="-1.52587">
        <ele>10</ele>
        <time>2023-08-11T15:28:56Z</time>
      </trkpt>
      <trkpt lat="47.38851" lon="-1.52634">
        <ele>11</ele>
        <time>2023-08-11T15:29:39Z</time>
      </trkpt>
      <trkpt lat="47.3887" lon="-1.52689">
        <ele>12</ele>
        <time>2023-08-11T15:30:34Z</time>
      </trkpt>
      <trkpt lat="47.38874" lon="-1.52719">
        <ele>13</ele>
        <time>2023-08-11T15:31:02Z</time>
      </trkpt>
      <trkpt lat="47.38873" lon="-1.52748">
        <ele>14</ele>
        <time>2023-08-11T15:31:28Z</time>
      </trkpt>
      <trkpt lat="47.3885" lon="-1.52748">
        <ele>14</ele>
        <time>2023-08-11T15:31:59Z</time>
      </trkpt>
      <trkpt lat="47.38828" lon="-1.52744">
        <ele>15</ele>
        <time>2023-08-11T15:32:28Z</time>
      </trkpt>
      <trkpt lat="47.38808" lon="-1.52748">
        <ele>16</ele>
        <time>2023-08-11T15:32:55Z</time>
      </trkpt>
      <trkpt lat="47.38789" lon="-1.5275">
        <ele>18</ele>
        <time>2023-08-11T15:33:21Z</time>
      </trkpt>
      <trkpt lat="47.38771" lon="-1.52754">
        <ele>19</ele>
        <time>2023-08-11T15:33:45Z</time>
      </trkpt>
      <trkpt lat="47.38743" lon="-1.5275">
        <ele>20</ele>
        <time>2023-08-11T15:34:23Z</time>
      </trkpt>
      <trkpt lat="47.38725" lon="-1.5275">
        <ele>21</ele>
        <time>2023-08-11T15:34:47Z</time>
      </trkpt>
      <trkpt lat="47.38707" lon="-1.52752">
        <ele>21</ele>
        <time>2023-08-11T15:35:11Z</time>
      </trkpt>
      <trkpt lat="47.38686" lon="-1.52757">
        <ele>21</ele>
        <time>2023-08-11T15:35:39Z</time>
      </trkpt>
      <trkpt lat="47.3862" lon="-1.52765">
        <ele>23</ele>
        <time>2023-08-11T15:37:08Z</time>
      </trkpt>
      <trkpt lat="47.38578" lon="-1.52768">
        <ele>24</ele>
        <time>2023-08-11T15:38:04Z</time>
      </trkpt>
      <trkpt lat="47.38499" lon="-1.52768">
        <ele>24</ele>
        <time>2023-08-11T15:39:49Z</time>
      </trkpt>
      <trkpt lat="47.3848" lon="-1.52771">
        <ele>24</ele>
        <time>2023-08-11T15:40:15Z</time>
      </trkpt>
      <trkpt lat="47.38461" lon="-1.52772">
        <ele>24</ele>
        <time>2023-08-11T15:40:40Z</time>
      </trkpt>
      <trkpt lat="47.38409" lon="-1.52772">
        <ele>24</ele>
        <time>2023-08-11T15:41:49Z</time>
      </trkpt>
      <trkpt lat="47.38367" lon="-1.52775">
        <ele>24</ele>
        <time>2023-08-11T15:42:45Z</time>
      </trkpt>
      <trkpt lat="47.38328" lon="-1.52772">
        <ele>24</ele>
        <time>2023-08-11T15:43:38Z</time>
      </trkpt>
      <trkpt lat="47.38283" lon="-1.52768">
        <ele>23</ele>
        <time>2023-08-11T15:44:38Z</time>
      </trkpt>
      <trkpt lat="47.38265" lon="-1.52769">
        <ele>23</ele>
        <time>2023-08-11T15:45:02Z</time>
      </trkpt>
      <trkpt lat="47.38245" lon="-1.52768">
        <ele>23</ele>
        <time>2023-08-11T15:45:28Z</time>
      </trkpt>
      <trkpt lat="47.38227" lon="-1.52773">
        <ele>22</ele>
        <time>2023-08-11T15:45:53Z</time>
      </trkpt>
      <trkpt lat="47.38209" lon="-1.52777">
        <ele>21</ele>
        <time>2023-08-11T15:46:17Z</time>
      </trkpt>
      <trkpt lat="47.3819" lon="-1.52785">
        <ele>21</ele>
        <time>2023-08-11T15:46:44Z</time>
      </trkpt>
      <trkpt lat="47.3813" lon="-1.52837">
        <ele>20</ele>
        <time>2023-08-11T15:48:16Z</time>
      </trkpt>
      <trkpt lat="47.38104" lon="-1.52862">
        <ele>20</ele>
        <time>2023-08-11T15:48:58Z</time>
      </trkpt>
      <trkpt lat="47.38087" lon="-1.52877">
        <ele>20</ele>
        <time>2023-08-11T15:49:24Z</time>
      </trkpt>
      <trkpt lat="47.3807" lon="-1.5289">
        <ele>21</ele>
        <time>2023-08-11T15:49:50Z</time>
      </trkpt>
      <trkpt lat="47.38048" lon="-1.52899">
        <ele>21</ele>
        <time>2023-08-11T15:50:20Z</time>
      </trkpt>
      <trkpt lat="47.3803" lon="-1.52907">
        <ele>21</ele>
        <time>2023-08-11T15:50:45Z</time>
      </trkpt>
      <trkpt lat="47.38012" lon="-1.52902">
        <ele>22</ele>
        <time>2023-08-11T15:51:10Z</time>
      </trkpt>
      <trkpt lat="47.3802" lon="-1.52848">
        <ele>21</ele>
        <time>2023-08-11T15:52:00Z</time>
      </trkpt>
      <trkpt lat="47.38023" lon="-1.52821">
        <ele>20</ele>
        <time>2023-08-11T15:52:24Z</time>
      </trkpt>
      <trkpt lat="47.38025" lon="-1.52792">
        <ele>20</ele>
        <time>2023-08-11T15:52:51Z</time>
      </trkpt>
      <trkpt lat="47.38004" lon="-1.52784">
        <ele>20</ele>
        <time>2023-08-11T15:53:20Z</time>
      </trkpt>
      <trkpt lat="47.37984" lon="-1.52785">
        <ele>20</ele>
        <time>2023-08-11T15:53:46Z</time>
      </trkpt>
      <trkpt lat="47.37964" lon="-1.52786">
        <ele>20</ele>
        <time>2023-08-11T15:54:13Z</time>
      </trkpt>
      <trkpt lat="47.37935" lon="-1.52786">
        <ele>20</ele>
        <time>2023-08-11T15:54:52Z</time>
      </trkpt>
      <trkpt lat="47.37916" lon="-1.52788">
        <ele>19</ele>
        <time>2023-08-11T15:55:17Z</time>
      </trkpt>
      <trkpt lat="47.37897" lon="-1.52787">
        <ele>20</ele>
        <time>2023-08-11T15:55:43Z</time>
      </trkpt>
      <trkpt lat="47.37805" lon="-1.52791">
        <ele>20</ele>
        <time>2023-08-11T15:57:45Z</time>
      </trkpt>
      <trkpt lat="47.37784" lon="-1.52796">
        <ele>20</ele>
        <time>2023-08-11T15:58:14Z</time>
      </trkpt>
      <trkpt lat="47.37764" lon="-1.52798">
        <ele>21</ele>
        <time>2023-08-11T15:58:41Z</time>
      </trkpt>
      <trkpt lat="47.37729" lon="-1.52804">
        <ele>21</ele>
        <time>2023-08-11T15:59:28Z</time>
      </trkpt>
      <trkpt lat="47.37686" lon="-1.52838">
        <ele>22</ele>
        <time>2023-08-11T16:00:33Z</time>
      </trkpt>
      <trkpt lat="47.37657" lon="-1.52867">
        <ele>23</ele>
        <time>2023-08-11T16:01:19Z</time>
      </trkpt>
      <trkpt lat="47.37644" lon="-1.52887">
        <ele>23</ele>
        <time>2023-08-11T16:01:44Z</time>
      </trkpt>
      <trkpt lat="47.3763" lon="-1.52916">
        <ele>24</ele>
        <time>2023-08-11T16:02:17Z</time>
      </trkpt>
      <trkpt lat="47.37597" lon="-1.52978">
        <ele>21</ele>
        <time>2023-08-11T16:03:28Z</time>
      </trkpt>
      <trkpt lat="47.37581" lon="-1.53012">
        <ele>20</ele>
        <time>2023-08-11T16:04:05Z</time>
      </trkpt>
      <trkpt lat="47.37571" lon="-1.53034">
        <ele>19</ele>
        <time>2023-08-11T16:04:29Z</time>
      </trkpt>
      <trkpt lat="47.37554" lon="-1.53078">
        <ele>18</ele>
        <time>2023-08-11T16:05:15Z</time>
      </trkpt>
      <trkpt lat="47.37543" lon="-1.53107">
        <ele>18</ele>
        <time>2023-08-11T16:05:45Z</time>
      </trkpt>
      <trkpt lat="47.37522" lon="-1.53153">
        <ele>17</ele>
        <time>2023-08-11T16:06:35Z</time>
      </trkpt>
      <trkpt lat="47.37505" lon="-1.53194">
        <ele>16</ele>
        <time>2023-08-11T16:07:19Z</time>
      </trkpt>
      <trkpt lat="47.37492" lon="-1.5322">
        <ele>16</ele>
        <time>2023-08-11T16:07:48Z</time>
      </trkpt>
      <trkpt lat="47.37467" lon="-1.53275">
        <ele>15</ele>
        <time>2023-08-11T16:08:48Z</time>
      </trkpt>
      <trkpt lat="47.37429" lon="-1.5336">
        <ele>14</ele>
        <time>2023-08-11T16:10:20Z</time>
      </trkpt>
      <trkpt lat="47.37422" lon="-1.53397">
        <ele>15</ele>
        <time>2023-08-11T16:10:54Z</time>
      </trkpt>
      <trkpt lat="47.37456" lon="-1.53427">
        <ele>15</ele>
        <time>2023-08-11T16:11:47Z</time>
      </trkpt>
      <trkpt lat="47.37492" lon="-1.53453">
        <ele>15</ele>
        <time>2023-08-11T16:12:41Z</time>
      </trkpt>
      <trkpt lat="47.37518" lon="-1.53494">
        <ele>16</ele>
        <time>2023-08-11T16:13:32Z</time>
      </trkpt>
      <trkpt lat="47.37542" lon="-1.53542">
        <ele>18</ele>
        <time>2023-08-11T16:14:26Z</time>
      </trkpt>
      <trkpt lat="47.37597" lon="-1.5363">
        <ele>22</ele>
        <time>2023-08-11T16:16:14Z</time>
      </trkpt>
      <trkpt lat="47.37632" lon="-1.53679">
        <ele>24</ele>
        <time>2023-08-11T16:17:18Z</time>
      </trkpt>
      <trkpt lat="47.37646" lon="-1.53707">
        <ele>25</ele>
        <time>2023-08-11T16:17:50Z</time>
      </trkpt>
      <trkpt lat="47.37594" lon="-1.53774">
        <ele>25</ele>
        <time>2023-08-11T16:19:22Z</time>
      </trkpt>
      <trkpt lat="47.37601" lon="-1.53812">
        <ele>26</ele>
        <time>2023-08-11T16:19:57Z</time>
      </trkpt>
      <trkpt lat="47.3763" lon="-1.53858">
        <ele>28</ele>
        <time>2023-08-11T16:20:54Z</time>
      </trkpt>
      <trkpt lat="47.37641" lon="-1.53931">
        <ele>30</ele>
        <time>2023-08-11T16:22:02Z</time>
      </trkpt>
      <trkpt lat="47.37672" lon="-1.53994">
        <ele>31</ele>
        <time>2023-08-11T16:23:12Z</time>
      </trkpt>
      <trkpt lat="47.37634" lon="-1.54043">
        <ele>30</ele>
        <time>2023-08-11T16:24:19Z</time>
      </trkpt>
      <trkpt lat="47.37593" lon="-1.54065">
        <ele>31</ele>
        <time>2023-08-11T16:25:18Z</time>
      </trkpt>
      <trkpt lat="47.37553" lon="-1.54062">
        <ele>30</ele>
        <time>2023-08-11T16:26:11Z</time>
      </trkpt>
      <trkpt lat="47.3751" lon="-1.54053">
        <ele>29</ele>
        <time>2023-08-11T16:27:09Z</time>
      </trkpt>
      <trkpt lat="47.37464" lon="-1.54047">
        <ele>27</ele>
        <time>2023-08-11T16:28:11Z</time>
      </trkpt>
      <trkpt lat="47.37418" lon="-1.54045">
        <ele>25</ele>
        <time>2023-08-11T16:29:12Z</time>
      </trkpt>
      <trkpt lat="47.37383" lon="-1.54059">
        <ele>25</ele>
        <time>2023-08-11T16:30:00Z</time>
      </trkpt>
      <trkpt lat="47.37365" lon="-1.54065">
        <ele>24</ele>
        <time>2023-08-11T16:30:25Z</time>
      </trkpt>
      <trkpt lat="47.37346" lon="-1.5407">
        <ele>24</ele>
        <time>2023-08-11T16:30:51Z</time>
      </trkpt>
      <trkpt lat="47.37328" lon="-1.54075">
        <ele>24</ele>
        <time>2023-08-11T16:31:15Z</time>
      </trkpt>
      <trkpt lat="47.37309" lon="-1.54079">
        <ele>23</ele>
        <time>2023-08-11T16:31:41Z</time>
      </trkpt>
      <trkpt lat="47.37284" lon="-1.54081">
        <ele>22</ele>
        <time>2023-08-11T16:32:14Z</time>
      </trkpt>
      <trkpt lat="47.37275" lon="-1.5406">
        <ele>22</ele>
        <time>2023-08-11T16:32:37Z</time>
      </trkpt>
      <trkpt lat="47.37259" lon="-1.54044">
        <ele>21</ele>
        <time>2023-08-11T16:33:02Z</time>
      </trkpt>
      <trkpt lat="47.3724" lon="-1.54048">
        <ele>21</ele>
        <time>2023-08-11T16:33:28Z</time>
      </trkpt>
      <trkpt lat="47.37222" lon="-1.54052">
        <ele>21</ele>
        <time>2023-08-11T16:33:52Z</time>
      </trkpt>
      <trkpt lat="47.37203" lon="-1.5406">
        <ele>21</ele>
        <time>2023-08-11T16:34:19Z</time>
      </trkpt>
      <trkpt lat="47.37166" lon="-1.54067">
        <ele>20</ele>
        <time>2023-08-11T16:35:08Z</time>
      </trkpt>
      <trkpt lat="47.37149" lon="-1.54079">
        <ele>20</ele>
        <time>2023-08-11T16:35:34Z</time>
      </trkpt>
      <trkpt lat="47.37137" lon="-1.54099">
        <ele>20</ele>
        <time>2023-08-11T16:35:58Z</time>
      </trkpt>
      <trkpt lat="47.37121" lon="-1.54115">
        <ele>19</ele>
        <time>2023-08-11T16:36:24Z</time>
      </trkpt>
      <trkpt lat="47.37117" lon="-1.54142">
        <ele>19</ele>
        <time>2023-08-11T16:36:49Z</time>
      </trkpt>
      <trkpt lat="47.37103" lon="-1.54159">
        <ele>19</ele>
        <time>2023-08-11T16:37:13Z</time>
      </trkpt>
      <trkpt lat="47.37085" lon="-1.5416">
        <ele>19</ele>
        <time>2023-08-11T16:37:37Z</time>
      </trkpt>
      <trkpt lat="47.37066" lon="-1.54151">
        <ele>19</ele>
        <time>2023-08-11T16:38:03Z</time>
      </trkpt>
      <trkpt lat="47.37049" lon="-1.54141">
        <ele>18</ele>
        <time>2023-08-11T16:38:28Z</time>
      </trkpt>
      <trkpt lat="47.3703" lon="-1.5414">
        <ele>18</ele>
        <time>2023-08-11T16:38:53Z</time>
      </trkpt>
      <trkpt lat="47.37012" lon="-1.54147">
        <ele>18</ele>
        <time>2023-08-11T16:39:18Z</time>
      </trkpt>
      <trkpt lat="47.36995" lon="-1.54156">
        <ele>18</ele>
        <time>2023-08-11T16:39:42Z</time>
      </trkpt>
      <trkpt lat="47.36977" lon="-1.54165">
        <ele>19</ele>
        <time>2023-08-11T16:40:07Z</time>
      </trkpt>
      <trkpt lat="47.3696" lon="-1.54172">
        <ele>19</ele>
        <time>2023-08-11T16:40:31Z</time>
      </trkpt>
      <trkpt lat="47.36941" lon="-1.54177">
        <ele>20</ele>
        <time>2023-08-11T16:40:57Z</time>
      </trkpt>
      <trkpt lat="47.36924" lon="-1.54187">
        <ele>20</ele>
        <time>2023-08-11T16:41:21Z</time>
      </trkpt>
      <trkpt lat="47.36907" lon="-1.54199">
        <ele>20</ele>
        <time>2023-08-11T16:41:46Z</time>
      </trkpt>
      <trkpt lat="47.3689" lon="-1.54211">
        <ele>20</ele>
        <time>2023-08-11T16:42:11Z</time>
      </trkpt>
      <trkpt lat="47.36873" lon="-1.54221">
        <ele>20</ele>
        <time>2023-08-11T16:42:36Z</time>
      </trkpt>
      <trkpt lat="47.36856" lon="-1.54234">
        <ele>19</ele>
        <time>2023-08-11T16:43:01Z</time>
      </trkpt>
      <trkpt lat="47.36839" lon="-1.54244">
        <ele>19</ele>
        <time>2023-08-11T16:43:26Z</time>
      </trkpt>
      <trkpt lat="47.36822" lon="-1.54258">
        <ele>19</ele>
        <time>2023-08-11T16:43:52Z</time>
      </trkpt>
      <trkpt lat="47.36808" lon="-1.54276">
        <ele>20</ele>
        <time>2023-08-11T16:44:17Z</time>
      </trkpt>
      <trkpt lat="47.3679" lon="-1.54286">
        <ele>20</ele>
        <time>2023-08-11T16:44:42Z</time>
      </trkpt>
      <trkpt lat="47.36773" lon="-1.54298">
        <ele>20</ele>
        <time>2023-08-11T16:45:07Z</time>
      </trkpt>
      <trkpt lat="47.36756" lon="-1.54309">
        <ele>20</ele>
        <time>2023-08-11T16:45:32Z</time>
      </trkpt>
      <trkpt lat="47.36737" lon="-1.54314">
        <ele>20</ele>
        <time>2023-08-11T16:45:58Z</time>
      </trkpt>
      <trkpt lat="47.36719" lon="-1.54322">
        <ele>19</ele>
        <time>2023-08-11T16:46:23Z</time>
      </trkpt>
      <trkpt lat="47.36702" lon="-1.54329">
        <ele>19</ele>
        <time>2023-08-11T16:46:47Z</time>
      </trkpt>
      <trkpt lat="47.36684" lon="-1.54338">
        <ele>19</ele>
        <time>2023-08-11T16:47:12Z</time>
      </trkpt>
      <trkpt lat="47.36666" lon="-1.54341">
        <ele>19</ele>
        <time>2023-08-11T16:47:36Z</time>
      </trkpt>
      <trkpt lat="47.3663" lon="-1.54345">
        <ele>19</ele>
        <time>2023-08-11T16:48:24Z</time>
      </trkpt>
      <trkpt lat="47.36612" lon="-1.54348">
        <ele>19</ele>
        <time>2023-08-11T16:48:48Z</time>
      </trkpt>
      <trkpt lat="47.36593" lon="-1.54349">
        <ele>19</ele>
        <time>2023-08-11T16:49:14Z</time>
      </trkpt>
      <trkpt lat="47.36574" lon="-1.54347">
        <ele>19</ele>
        <time>2023-08-11T16:49:39Z</time>
      </trkpt>
      <trkpt lat="47.36555" lon="-1.54347">
        <ele>19</ele>
        <time>2023-08-11T16:50:05Z</time>
      </trkpt>
      <trkpt lat="47.36536" lon="-1.54343">
        <ele>20</ele>
        <time>2023-08-11T16:50:30Z</time>
      </trkpt>
      <trkpt lat="47.36519" lon="-1.54337">
        <ele>20</ele>
        <time>2023-08-11T16:50:54Z</time>
      </trkpt>
      <trkpt lat="47.36503" lon="-1.54325">
        <ele>20</ele>
        <time>2023-08-11T16:51:18Z</time>
      </trkpt>
      <trkpt lat="47.36486" lon="-1.54314">
        <ele>20</ele>
        <time>2023-08-11T16:51:42Z</time>
      </trkpt>
      <trkpt lat="47.36472" lon="-1.54296">
        <ele>20</ele>
        <time>2023-08-11T16:52:07Z</time>
      </trkpt>
      <trkpt lat="47.36455" lon="-1.54286">
        <ele>20</ele>
        <time>2023-08-11T16:52:31Z</time>
      </trkpt>
      <trkpt lat="47.36437" lon="-1.54279">
        <ele>20</ele>
        <time>2023-08-11T16:52:56Z</time>
      </trkpt>
      <trkpt lat="47.36418" lon="-1.54277">
        <ele>20</ele>
        <time>2023-08-11T16:53:22Z</time>
      </trkpt>
      <trkpt lat="47.364" lon="-1.54272">
        <ele>20</ele>
        <time>2023-08-11T16:53:46Z</time>
      </trkpt>
      <trkpt lat="47.36381" lon="-1.54266">
        <ele>21</ele>
        <time>2023-08-11T16:54:12Z</time>
      </trkpt>
      <trkpt lat="47.36363" lon="-1.54262">
        <ele>21</ele>
        <time>2023-08-11T16:54:36Z</time>
      </trkpt>
      <trkpt lat="47.36327" lon="-1.54254">
        <ele>22</ele>
        <time>2023-08-11T16:55:25Z</time>
      </trkpt>
      <trkpt lat="47.36309" lon="-1.5425">
        <ele>23</ele>
        <time>2023-08-11T16:55:49Z</time>
      </trkpt>
      <trkpt lat="47.3629" lon="-1.54245">
        <ele>24</ele>
        <time>2023-08-11T16:56:15Z</time>
      </trkpt>
      <trkpt lat="47.36272" lon="-1.5424">
        <ele>24</ele>
        <time>2023-08-11T16:56:39Z</time>
      </trkpt>
      <trkpt lat="47.36255" lon="-1.54228">
        <ele>25</ele>
        <time>2023-08-11T16:57:05Z</time>
      </trkpt>
      <trkpt lat="47.36238" lon="-1.54217">
        <ele>25</ele>
        <time>2023-08-11T16:57:29Z</time>
      </trkpt>
      <trkpt lat="47.3622" lon="-1.5421">
        <ele>26</ele>
        <time>2023-08-11T16:57:54Z</time>
      </trkpt>
      <trkpt lat="47.36203" lon="-1.54197">
        <ele>26</ele>
        <time>2023-08-11T16:58:20Z</time>
      </trkpt>
      <trkpt lat="47.36187" lon="-1.54184">
        <ele>26</ele>
        <time>2023-08-11T16:58:44Z</time>
      </trkpt>
      <trkpt lat="47.36178" lon="-1.54161">
        <ele>27</ele>
        <time>2023-08-11T16:59:08Z</time>
      </trkpt>
      <trkpt lat="47.36179" lon="-1.54133">
        <ele>27</ele>
        <time>2023-08-11T16:59:33Z</time>
      </trkpt>
      <trkpt lat="47.36178" lon="-1.54106">
        <ele>27</ele>
        <time>2023-08-11T16:59:58Z</time>
      </trkpt>
      <trkpt lat="47.3618" lon="-1.5408">
        <ele>27</ele>
        <time>2023-08-11T17:00:22Z</time>
      </trkpt>
      <trkpt lat="47.3618" lon="-1.54051">
        <ele>26</ele>
        <time>2023-08-11T17:00:48Z</time>
      </trkpt>
      <trkpt lat="47.36186" lon="-1.54025">
        <ele>26</ele>
        <time>2023-08-11T17:01:13Z</time>
      </trkpt>
      <trkpt lat="47.36186" lon="-1.53999">
        <ele>26</ele>
        <time>2023-08-11T17:01:36Z</time>
      </trkpt>
      <trkpt lat="47.36183" lon="-1.53972">
        <ele>26</ele>
        <time>2023-08-11T17:02:01Z</time>
      </trkpt>
      <trkpt lat="47.36182" lon="-1.53944">
        <ele>26</ele>
        <time>2023-08-11T17:02:26Z</time>
      </trkpt>
      <trkpt lat="47.36177" lon="-1.53917">
        <ele>26</ele>
        <time>2023-08-11T17:02:52Z</time>
      </trkpt>
      <trkpt lat="47.36176" lon="-1.53889">
        <ele>26</ele>
        <time>2023-08-11T17:03:17Z</time>
      </trkpt>
      <trkpt lat="47.36178" lon="-1.53834">
        <ele>27</ele>
        <time>2023-08-11T17:04:07Z</time>
      </trkpt>
      <trkpt lat="47.3618" lon="-1.53807">
        <ele>27</ele>
        <time>2023-08-11T17:04:31Z</time>
      </trkpt>
      <trkpt lat="47.3619" lon="-1.53782">
        <ele>27</ele>
        <time>2023-08-11T17:04:57Z</time>
      </trkpt>
      <trkpt lat="47.36205" lon="-1.53764">
        <ele>27</ele>
        <time>2023-08-11T17:05:23Z</time>
      </trkpt>
      <trkpt lat="47.36221" lon="-1.53752">
        <ele>27</ele>
        <time>2023-08-11T17:05:47Z</time>
      </trkpt>
      <trkpt lat="47.36238" lon="-1.53741">
        <ele>27</ele>
        <time>2023-08-11T17:06:12Z</time>
      </trkpt>
      <trkpt lat="47.36254" lon="-1.53729">
        <ele>27</ele>
        <time>2023-08-11T17:06:36Z</time>
      </trkpt>
      <trkpt lat="47.36262" lon="-1.53704">
        <ele>27</ele>
        <time>2023-08-11T17:07:01Z</time>
      </trkpt>
      <trkpt lat="47.36272" lon="-1.53681">
        <ele>27</ele>
        <time>2023-08-11T17:07:26Z</time>
      </trkpt>
      <trkpt lat="47.36284" lon="-1.53659">
        <ele>26</ele>
        <time>2023-08-11T17:07:51Z</time>
      </trkpt>
      <trkpt lat="47.36289" lon="-1.53632">
        <ele>26</ele>
        <time>2023-08-11T17:08:16Z</time>
      </trkpt>
      <trkpt lat="47.36288" lon="-1.53603">
        <ele>25</ele>
        <time>2023-08-11T17:08:43Z</time>
      </trkpt>
      <trkpt lat="47.3629" lon="-1.53575">
        <ele>25</ele>
        <time>2023-08-11T17:09:08Z</time>
      </trkpt>
      <trkpt lat="47.36287" lon="-1.53548">
        <ele>24</ele>
        <time>2023-08-11T17:09:33Z</time>
      </trkpt>
      <trkpt lat="47.36286" lon="-1.53521">
        <ele>24</ele>
        <time>2023-08-11T17:09:57Z</time>
      </trkpt>
      <trkpt lat="47.36288" lon="-1.53493">
        <ele>23</ele>
        <time>2023-08-11T17:10:23Z</time>
      </trkpt>
      <trkpt lat="47.36287" lon="-1.53466">
        <ele>22</ele>
        <time>2023-08-11T17:10:47Z</time>
      </trkpt>
      <trkpt lat="47.36288" lon="-1.53438">
        <ele>21</ele>
        <time>2023-08-11T17:11:13Z</time>
      </trkpt>
      <trkpt lat="47.3629" lon="-1.53411">
        <ele>20</ele>
        <time>2023-08-11T17:11:37Z</time>
      </trkpt>
      <trkpt lat="47.36289" lon="-1.53384">
        <ele>19</ele>
        <time>2023-08-11T17:12:02Z</time>
      </trkpt>
      <trkpt lat="47.36295" lon="-1.53356">
        <ele>18</ele>
        <time>2023-08-11T17:12:28Z</time>
      </trkpt>
      <trkpt lat="47.36296" lon="-1.53328">
        <ele>18</ele>
        <time>2023-08-11T17:12:53Z</time>
      </trkpt>
      <trkpt lat="47.36294" lon="-1.533">
        <ele>18</ele>
        <time>2023-08-11T17:13:19Z</time>
      </trkpt>
      <trkpt lat="47.36293" lon="-1.53271">
        <ele>18</ele>
        <time>2023-08-11T17:13:45Z</time>
      </trkpt>
      <trkpt lat="47.36278" lon="-1.53255">
        <ele>17</ele>
        <time>2023-08-11T17:14:10Z</time>
      </trkpt>
      <trkpt lat="47.36259" lon="-1.53249">
        <ele>17</ele>
        <time>2023-08-11T17:14:36Z</time>
      </trkpt>
      <trkpt lat="47.36242" lon="-1.53241">
        <ele>17</ele>
        <time>2023-08-11T17:15:00Z</time>
      </trkpt>
      <trkpt lat="47.36224" lon="-1.53234">
        <ele>17</ele>
        <time>2023-08-11T17:15:24Z</time>
      </trkpt>
      <trkpt lat="47.36205" lon="-1.53228">
        <ele>17</ele>
        <time>2023-08-11T17:15:50Z</time>
      </trkpt>
      <trkpt lat="47.36187" lon="-1.5322">
        <ele>17</ele>
        <time>2023-08-11T17:16:15Z</time>
      </trkpt>
      <trkpt lat="47.36169" lon="-1.53216">
        <ele>17</ele>
        <time>2023-08-11T17:16:40Z</time>
      </trkpt>
      <trkpt lat="47.3615" lon="-1.53218">
        <ele>18</ele>
        <time>2023-08-11T17:17:05Z</time>
      </trkpt>
      <trkpt lat="47.36112" lon="-1.53221">
        <ele>18</ele>
        <time>2023-08-11T17:17:56Z</time>
      </trkpt>
      <trkpt lat="47.36094" lon="-1.5322">
        <ele>19</ele>
        <time>2023-08-11T17:18:20Z</time>
      </trkpt>
      <trkpt lat="47.36039" lon="-1.53223">
        <ele>20</ele>
        <time>2023-08-11T17:19:33Z</time>
      </trkpt>
      <trkpt lat="47.36029" lon="-1.532">
        <ele>20</ele>
        <time>2023-08-11T17:19:58Z</time>
      </trkpt>
      <trkpt lat="47.36026" lon="-1.53174">
        <ele>20</ele>
        <time>2023-08-11T17:20:22Z</time>
      </trkpt>
      <trkpt lat="47.36027" lon="-1.53143">
        <ele>20</ele>
        <time>2023-08-11T17:20:50Z</time>
      </trkpt>
      <trkpt lat="47.36025" lon="-1.53114">
        <ele>20</ele>
        <time>2023-08-11T17:21:16Z</time>
      </trkpt>
      <trkpt lat="47.36018" lon="-1.53091">
        <ele>21</ele>
        <time>2023-08-11T17:21:39Z</time>
      </trkpt>
      <trkpt lat="47.36011" lon="-1.53071">
        <ele>21</ele>
        <time>2023-08-11T17:21:59Z</time>
      </trkpt>
      <trkpt lat="47.36007" lon="-1.53039">
        <ele>21</ele>
        <time>2023-08-11T17:22:29Z</time>
      </trkpt>
      <trkpt lat="47.36007" lon="-1.53016">
        <ele>21</ele>
        <time>2023-08-11T17:22:50Z</time>
      </trkpt>
      <trkpt lat="47.35992" lon="-1.52965">
        <ele>21</ele>
        <time>2023-08-11T17:23:40Z</time>
      </trkpt>
      <trkpt lat="47.35989" lon="-1.52938">
        <ele>20</ele>
        <time>2023-08-11T17:24:05Z</time>
      </trkpt>
      <trkpt lat="47.35989" lon="-1.52911">
        <ele>20</ele>
        <time>2023-08-11T17:24:29Z</time>
      </trkpt>
      <trkpt lat="47.36004" lon="-1.52894">
        <ele>20</ele>
        <time>2023-08-11T17:24:54Z</time>
      </trkpt>
      <trkpt lat="47.3604" lon="-1.52891">
        <ele>20</ele>
        <time>2023-08-11T17:25:42Z</time>
      </trkpt>
      <trkpt lat="47.36058" lon="-1.52887">
        <ele>19</ele>
        <time>2023-08-11T17:26:07Z</time>
      </trkpt>
      <trkpt lat="47.36077" lon="-1.52885">
        <ele>19</ele>
        <time>2023-08-11T17:26:32Z</time>
      </trkpt>
      <trkpt lat="47.36096" lon="-1.52886">
        <ele>19</ele>
        <time>2023-08-11T17:26:58Z</time>
      </trkpt>
      <trkpt lat="47.36132" lon="-1.5289">
        <ele>18</ele>
        <time>2023-08-11T17:27:46Z</time>
      </trkpt>
      <trkpt lat="47.36151" lon="-1.52889">
        <ele>17</ele>
        <time>2023-08-11T17:28:11Z</time>
      </trkpt>
      <trkpt lat="47.36169" lon="-1.52891">
        <ele>17</ele>
        <time>2023-08-11T17:28:35Z</time>
      </trkpt>
      <trkpt lat="47.36186" lon="-1.52879">
        <ele>16</ele>
        <time>2023-08-11T17:29:00Z</time>
      </trkpt>
      <trkpt lat="47.36191" lon="-1.52825">
        <ele>16</ele>
        <time>2023-08-11T17:29:50Z</time>
      </trkpt>
      <trkpt lat="47.36191" lon="-1.52798">
        <ele>17</ele>
        <time>2023-08-11T17:30:14Z</time>
      </trkpt>
      <trkpt lat="47.36193" lon="-1.52771">
        <ele>17</ele>
        <time>2023-08-11T17:30:39Z</time>
      </trkpt>
      <trkpt lat="47.3619" lon="-1.52718">
        <ele>17</ele>
        <time>2023-08-11T17:31:27Z</time>
      </trkpt>
      <trkpt lat="47.36202" lon="-1.52698">
        <ele>17</ele>
        <time>2023-08-11T17:31:51Z</time>
      </trkpt>
      <trkpt lat="47.36246" lon="-1.52646">
        <ele>15</ele>
        <time>2023-08-11T17:33:06Z</time>
      </trkpt>
      <trkpt lat="47.36262" lon="-1.52631">
        <ele>14</ele>
        <time>2023-08-11T17:33:31Z</time>
      </trkpt>
      <trkpt lat="47.36277" lon="-1.52615">
        <ele>13</ele>
        <time>2023-08-11T17:33:56Z</time>
      </trkpt>
      <trkpt lat="47.36292" lon="-1.52599">
        <ele>12</ele>
        <time>2023-08-11T17:34:21Z</time>
      </trkpt>
      <trkpt lat="47.36304" lon="-1.52577">
        <ele>12</ele>
        <time>2023-08-11T17:34:46Z</time>
      </trkpt>
      <trkpt lat="47.3631" lon="-1.52551">
        <ele>11</ele>
        <time>2023-08-11T17:35:11Z</time>
      </trkpt>
      <trkpt lat="47.36314" lon="-1.52525">
        <ele>11</ele>
        <time>2023-08-11T17:35:35Z</time>
      </trkpt>
      <trkpt lat="47.36332" lon="-1.5252">
        <ele>10</ele>
        <time>2023-08-11T17:36:00Z</time>
      </trkpt>
      <trkpt lat="47.36348" lon="-1.52536">
        <ele>10</ele>
        <time>2023-08-11T17:36:25Z</time>
      </trkpt>
      <trkpt lat="47.36363" lon="-1.52554">
        <ele>9</ele>
        <time>2023-08-11T17:36:51Z</time>
      </trkpt>
      <trkpt lat="47.36386" lon="-1.52598">
        <ele>9</ele>
        <time>2023-08-11T17:37:41Z</time>
      </trkpt>
      <trkpt lat="47.36399" lon="-1.52616">
        <ele>8</ele>
        <time>2023-08-11T17:38:05Z</time>
      </trkpt>
      <trkpt lat="47.36416" lon="-1.5263">
        <ele>8</ele>
        <time>2023-08-11T17:38:31Z</time>
      </trkpt>
      <trkpt lat="47.36433" lon="-1.5264">
        <ele>8</ele>
        <time>2023-08-11T17:38:56Z</time>
      </trkpt>
      <trkpt lat="47.36452" lon="-1.52636">
        <ele>8</ele>
        <time>2023-08-11T17:39:21Z</time>
      </trkpt>
      <trkpt lat="47.3647" lon="-1.52632">
        <ele>8</ele>
        <time>2023-08-11T17:39:45Z</time>
      </trkpt>
      <trkpt lat="47.36488" lon="-1.52627">
        <ele>8</ele>
        <time>2023-08-11T17:40:10Z</time>
      </trkpt>
      <trkpt lat="47.36505" lon="-1.52619">
        <ele>9</ele>
        <time>2023-08-11T17:40:34Z</time>
      </trkpt>
      <trkpt lat="47.36523" lon="-1.52611">
        <ele>9</ele>
        <time>2023-08-11T17:40:59Z</time>
      </trkpt>
      <trkpt lat="47.36555" lon="-1.52586">
        <ele>11</ele>
        <time>2023-08-11T17:41:47Z</time>
      </trkpt>
      <trkpt lat="47.36568" lon="-1.52565">
        <ele>11</ele>
        <time>2023-08-11T17:42:13Z</time>
      </trkpt>
      <trkpt lat="47.36579" lon="-1.52544">
        <ele>11</ele>
        <time>2023-08-11T17:42:37Z</time>
      </trkpt>
      <trkpt lat="47.36593" lon="-1.52525">
        <ele>11</ele>
        <time>2023-08-11T17:43:02Z</time>
      </trkpt>
      <trkpt lat="47.36605" lon="-1.52504">
        <ele>11</ele>
        <time>2023-08-11T17:43:27Z</time>
      </trkpt>
      <trkpt lat="47.36612" lon="-1.52478">
        <ele>10</ele>
        <time>2023-08-11T17:43:52Z</time>
      </trkpt>
      <trkpt lat="47.36622" lon="-1.52455">
        <ele>10</ele>
        <time>2023-08-11T17:44:17Z</time>
      </trkpt>
      <trkpt lat="47.36633" lon="-1.52403">
        <ele>10</ele>
        <time>2023-08-11T17:45:06Z</time>
      </trkpt>
      <trkpt lat="47.36637" lon="-1.52349">
        <ele>11</ele>
        <time>2023-08-11T17:45:55Z</time>
      </trkpt>
      <trkpt lat="47.3664" lon="-1.52323">
        <ele>11</ele>
        <time>2023-08-11T17:46:19Z</time>
      </trkpt>
      <trkpt lat="47.36642" lon="-1.52295">
        <ele>11</ele>
        <time>2023-08-11T17:46:45Z</time>
      </trkpt>
      <trkpt lat="47.36645" lon="-1.52267">
        <ele>11</ele>
        <time>2023-08-11T17:47:10Z</time>
      </trkpt>
      <trkpt lat="47.3665" lon="-1.52241">
        <ele>11</ele>
        <time>2023-08-11T17:47:35Z</time>
      </trkpt>
      <trkpt lat="47.36656" lon="-1.52216">
        <ele>11</ele>
        <time>2023-08-11T17:47:59Z</time>
      </trkpt>
      <trkpt lat="47.36667" lon="-1.52194">
        <ele>11</ele>
        <time>2023-08-11T17:48:23Z</time>
      </trkpt>
      <trkpt lat="47.36676" lon="-1.52171">
        <ele>11</ele>
        <time>2023-08-11T17:48:47Z</time>
      </trkpt>
      <trkpt lat="47.36685" lon="-1.52148">
        <ele>11</ele>
        <time>2023-08-11T17:49:11Z</time>
      </trkpt>
      <trkpt lat="47.36696" lon="-1.52124">
        <ele>10</ele>
        <time>2023-08-11T17:49:38Z</time>
      </trkpt>
      <trkpt lat="47.36723" lon="-1.52052">
        <ele>9</ele>
        <time>2023-08-11T17:50:52Z</time>
      </trkpt>
      <trkpt lat="47.3673" lon="-1.52026">
        <ele>9</ele>
        <time>2023-08-11T17:51:17Z</time>
      </trkpt>
      <trkpt lat="47.36742" lon="-1.52006">
        <ele>8</ele>
        <time>2023-08-11T17:51:41Z</time>
      </trkpt>
      <trkpt lat="47.36751" lon="-1.51981">
        <ele>8</ele>
        <time>2023-08-11T17:52:07Z</time>
      </trkpt>
      <trkpt lat="47.36762" lon="-1.51959">
        <ele>8</ele>
        <time>2023-08-11T17:52:32Z</time>
      </trkpt>
      <trkpt lat="47.36772" lon="-1.51936">
        <ele>8</ele>
        <time>2023-08-11T17:52:56Z</time>
      </trkpt>
      <trkpt lat="47.36777" lon="-1.51909">
        <ele>8</ele>
        <time>2023-08-11T17:53:22Z</time>
      </trkpt>
      <trkpt lat="47.36787" lon="-1.51887">
        <ele>8</ele>
        <time>2023-08-11T17:53:46Z</time>
      </trkpt>
      <trkpt lat="47.36796" lon="-1.51863">
        <ele>9</ele>
        <time>2023-08-11T17:54:10Z</time>
      </trkpt>
      <trkpt lat="47.36803" lon="-1.51836">
        <ele>9</ele>
        <time>2023-08-11T17:54:37Z</time>
      </trkpt>
      <trkpt lat="47.36805" lon="-1.51809">
        <ele>9</ele>
        <time>2023-08-11T17:55:01Z</time>
      </trkpt>
      <trkpt lat="47.36803" lon="-1.51781">
        <ele>8</ele>
        <time>2023-08-11T17:55:27Z</time>
      </trkpt>
      <trkpt lat="47.36796" lon="-1.51725">
        <ele>9</ele>
        <time>2023-08-11T17:56:18Z</time>
      </trkpt>
      <trkpt lat="47.36796" lon="-1.51698">
        <ele>9</ele>
        <time>2023-08-11T17:56:42Z</time>
      </trkpt>
      <trkpt lat="47.36749" lon="-1.51533">
        <ele>11</ele>
        <time>2023-08-11T17:59:24Z</time>
      </trkpt>
      <trkpt lat="47.36705" lon="-1.51356">
        <ele>8</ele>
        <time>2023-08-11T18:02:15Z</time>
      </trkpt>
      <trkpt lat="47.36718" lon="-1.51208">
        <ele>7</ele>
        <time>2023-08-11T18:04:30Z</time>
      </trkpt>
      <trkpt lat="47.36577" lon="-1.50814">
        <ele>6</ele>
        <time>2023-08-11T18:11:12Z</time>
      </trkpt>
      <trkpt lat="47.36599" lon="-1.50671">
        <ele>8</ele>
        <time>2023-08-11T18:13:25Z</time>
      </trkpt>
      <trkpt lat="47.36589" lon="-1.50542">
        <ele>8</ele>
        <time>2023-08-11T18:15:22Z</time>
      </trkpt>
      <trkpt lat="47.36522" lon="-1.50457">
        <ele>8</ele>
        <time>2023-08-11T18:17:20Z</time>
      </trkpt>
      <trkpt lat="47.36433" lon="-1.50575">
        <ele>8</ele>
        <time>2023-08-11T18:20:00Z</time>
      </trkpt>
      <trkpt lat="47.36457" lon="-1.50716">
        <ele>8</ele>
        <time>2023-08-11T18:22:11Z</time>
      </trkpt>
      <trkpt lat="47.36372" lon="-1.50781">
        <ele>6</ele>
        <time>2023-08-11T18:24:19Z</time>
      </trkpt>
      <trkpt lat="47.36329" lon="-1.50813">
        <ele>6</ele>
        <time>2023-08-11T18:25:23Z</time>
      </trkpt>
    </trkseg>
  </trk>
</gpx>